Time;durP1;ratioP1;P1;durP2;ratioP2;P2;SDS_P1;SDS_P2;PMS_P1;PMS_P2;Temp;Humidity;BMP_temperature;BMP_pressure;BME280_temperature;BME280_humidity;BME280_pressure;Samples;Min_cycle;Max_cycle;Signal;HPM_P1;HPM_P2
2022/07/20 00:02:21;;;;;;;8.93;3.50;;;25.20;52.70;;;;;;5069906;28;20033;-85
2022/07/20 00:04:51;;;;;;;8.70;3.38;;;25.10;52.90;;;;;;5053014;28;20036;-85
2022/07/20 00:07:17;;;;;;;8.52;3.03;;;25.10;52.80;;;;;;5086246;28;20139;-85
2022/07/20 00:12:27;;;;;;;8.95;3.42;;;25.10;53.10;;;;;;5086113;28;20056;-85
2022/07/20 00:14:53;;;;;;;9.30;3.25;;;25.00;53.00;;;;;;5069387;28;20040;-85
2022/07/20 00:17:19;;;;;;;8.95;3.15;;;24.90;53.10;;;;;;5052858;28;20127;-85
2022/07/20 00:19:44;;;;;;;9.88;3.60;;;24.90;53.10;;;;;;5052488;28;20051;-85
2022/07/20 00:22:10;;;;;;;7.60;3.13;;;24.90;53.40;;;;;;5069872;28;20076;-84
2022/07/20 00:24:36;;;;;;;7.35;3.42;;;24.90;53.40;;;;;;5069210;28;20043;-85
2022/07/20 00:27:02;;;;;;;9.60;3.60;;;24.80;53.50;;;;;;5069185;28;20127;-85
2022/07/20 00:29:28;;;;;;;7.78;3.20;;;24.80;53.60;;;;;;5052538;28;20120;-85
2022/07/20 00:31:53;;;;;;;10.50;3.65;;;24.70;53.60;;;;;;5069537;28;20040;-85
2022/07/20 00:34:19;;;;;;;7.22;3.40;;;24.70;53.80;;;;;;5072441;28;20040;-85
2022/07/20 00:36:45;;;;;;;8.68;3.22;;;24.70;54.00;;;;;;5073154;28;20048;-85
2022/07/20 00:39:10;;;;;;;9.48;3.47;;;24.60;54.20;;;;;;5072748;28;20123;-84
2022/07/20 00:41:36;;;;;;;8.25;3.50;;;24.60;54.70;;;;;;5072531;28;20409;-85
2022/07/20 00:44:11;;;;;;;10.38;3.47;;;24.50;54.90;;;;;;5056489;28;20040;-85
2022/07/20 00:46:39;;;;;;;9.95;3.55;;;24.50;54.70;;;;;;5074146;28;20036;-85
2022/07/20 00:49:06;;;;;;;10.07;3.78;;;24.50;54.90;;;;;;5072550;28;20083;-85
2022/07/20 00:51:33;;;;;;;8.45;3.42;;;24.40;55.10;;;;;;5056048;28;20044;-85
2022/07/20 00:54:00;;;;;;;7.32;3.60;;;24.40;55.20;;;;;;5072315;28;20056;-84
2022/07/20 00:56:26;;;;;;;8.43;3.28;;;24.40;55.30;;;;;;5073885;28;20051;-84
2022/07/20 00:58:52;;;;;;;8.13;3.50;;;24.30;56.00;;;;;;5072395;28;20493;-84
2022/07/20 01:01:17;;;;;;;7.15;3.25;;;24.30;55.50;;;;;;5072273;28;20082;-84
2022/07/20 01:03:44;;;;;;;9.48;3.50;;;24.30;55.60;;;;;;5055593;28;20049;-85
2022/07/20 01:06:10;;;;;;;9.85;3.92;;;24.20;55.40;;;;;;5072390;28;20102;-84
2022/07/20 01:08:36;;;;;;;11.32;3.72;;;24.20;55.60;;;;;;5072111;28;20076;-85
2022/07/20 01:11:02;;;;;;;10.05;3.30;;;24.20;55.80;;;;;;5073407;28;20040;-85
2022/07/20 01:13:28;;;;;;;11.23;3.90;;;24.20;55.90;;;;;;5072334;28;20517;-85
2022/07/20 01:15:53;;;;;;;10.82;3.50;;;24.10;56.10;;;;;;5072041;28;20124;-85
2022/07/20 01:18:19;;;;;;;8.32;3.60;;;24.10;56.40;;;;;;5073358;28;20044;-85
2022/07/20 01:20:48;;;;;;;9.38;3.67;;;24.10;56.40;;;;;;5055010;28;20040;-85
2022/07/20 01:23:14;;;;;;;10.55;3.65;;;24.00;56.50;;;;;;5071779;28;20489;-85
2022/07/20 01:25:40;;;;;;;8.85;3.70;;;24.00;56.70;;;;;;5072282;28;20040;-85
2022/07/20 01:28:08;;;;;;;9.02;3.75;;;24.00;56.90;;;;;;5055254;28;20040;-85
2022/07/20 01:30:33;;;;;;;7.22;3.50;;;23.90;57.10;;;;;;5071582;28;20075;-85
2022/07/20 01:32:59;;;;;;;8.68;3.85;;;23.90;57.20;;;;;;5072111;28;20068;-86
2022/07/20 01:35:25;;;;;;;8.40;3.50;;;23.90;57.40;;;;;;5072082;28;20040;-85
2022/07/20 01:37:50;;;;;;;9.50;3.45;;;23.80;57.50;;;;;;5071863;28;20587;-85
2022/07/20 01:40:16;;;;;;;8.65;3.58;;;23.80;57.70;;;;;;5088181;28;20559;-85
2022/07/20 01:42:41;;;;;;;8.32;3.53;;;23.80;57.70;;;;;;5071982;28;20097;-85
2022/07/20 01:45:07;;;;;;;7.45;3.22;;;23.80;57.90;;;;;;5071672;28;20136;-85
2022/07/20 01:47:33;;;;;;;10.13;3.65;;;23.70;58.00;;;;;;5071739;28;20040;-85
2022/07/20 01:49:58;;;;;;;10.73;3.60;;;23.70;58.10;;;;;;5071297;28;20091;-85
2022/07/20 01:52:24;;;;;;;8.43;3.80;;;23.70;58.00;;;;;;5070463;28;20036;-85
2022/07/20 01:54:50;;;;;;;7.90;3.63;;;23.60;57.90;;;;;;5054721;28;20105;-85
2022/07/20 01:57:15;;;;;;;10.68;4.13;;;23.60;58.20;;;;;;5071644;28;20047;-85
2022/07/20 01:59:41;;;;;;;7.68;3.40;;;23.60;58.50;;;;;;5071288;28;20115;-85
2022/07/20 02:02:06;;;;;;;9.05;3.40;;;23.50;58.70;;;;;;5054586;28;20498;-85
2022/07/20 02:04:32;;;;;;;10.05;3.90;;;23.50;58.70;;;;;;5054845;28;20086;-85
2022/07/20 02:06:58;;;;;;;10.70;3.80;;;23.50;59.00;;;;;;5071146;28;20516;-84
2022/07/20 02:09:23;;;;;;;8.60;3.65;;;23.40;59.10;;;;;;5070749;28;20572;-84
2022/07/20 02:11:49;;;;;;;11.07;3.60;;;23.40;59.00;;;;;;5071452;28;20037;-84
2022/07/20 02:14:14;;;;;;;8.40;3.55;;;23.40;59.20;;;;;;5070508;28;20072;-85
2022/07/20 02:16:40;;;;;;;11.70;3.90;;;23.30;59.50;;;;;;5071268;28;20106;-85
2022/07/20 02:19:06;;;;;;;8.20;3.60;;;23.30;59.60;;;;;;5070637;28;20047;-85
2022/07/20 02:21:31;;;;;;;8.88;3.95;;;23.30;59.70;;;;;;5087677;28;20037;-85
2022/07/20 02:23:57;;;;;;;9.93;3.70;;;23.30;59.70;;;;;;5070349;28;20036;-84
2022/07/20 02:26:23;;;;;;;9.55;3.53;;;23.20;59.90;;;;;;5054090;28;20036;-85
2022/07/20 02:28:50;;;;;;;7.10;3.42;;;23.20;60.30;;;;;;5087705;28;20039;-85
2022/07/20 02:31:18;;;;;;;8.38;3.72;;;23.20;60.20;;;;;;5053672;28;20082;-85
2022/07/20 02:33:44;;;;;;;11.77;4.03;;;23.10;60.00;;;;;;5070702;28;20071;-84
2022/07/20 02:36:10;;;;;;;7.60;3.63;;;23.10;60.00;;;;;;5070702;28;20234;-84
2022/07/20 02:38:35;;;;;;;10.60;3.42;;;23.10;60.90;;;;;;5053931;28;20537;-84
2022/07/20 02:41:01;;;;;;;8.00;3.75;;;23.00;60.30;;;;;;5070385;28;20379;-84
2022/07/20 02:43:27;;;;;;;12.55;3.92;;;23.10;60.20;;;;;;5070542;28;20119;-84
2022/07/20 02:45:52;;;;;;;8.43;3.75;;;23.00;60.50;;;;;;5070357;28;20540;-84
2022/07/20 02:48:18;;;;;;;8.27;3.53;;;22.90;60.90;;;;;;5070377;28;20028;-84
2022/07/20 02:50:44;;;;;;;9.07;3.97;;;22.90;60.80;;;;;;5070339;28;20048;-84
2022/07/20 02:53:11;;;;;;;9.07;3.78;;;22.90;60.70;;;;;;5070317;28;20036;-85
2022/07/20 02:55:38;;;;;;;8.88;4.10;;;22.90;60.70;;;;;;5069587;28;20143;-85
2022/07/20 02:58:04;;;;;;;8.38;3.80;;;22.80;60.70;;;;;;5052877;28;20045;-85
2022/07/20 03:00:29;;;;;;;12.85;4.32;;;22.80;61.00;;;;;;5053002;28;20068;-85
2022/07/20 03:02:55;;;;;;;6.95;3.45;;;22.80;61.00;;;;;;5070239;28;20084;-85
2022/07/20 03:05:21;;;;;;;7.93;3.60;;;22.80;61.20;;;;;;5069979;28;20040;-85
2022/07/20 03:07:47;;;;;;;7.53;3.70;;;22.70;61.40;;;;;;5071600;28;20066;-84
2022/07/20 03:10:12;;;;;;;12.07;4.07;;;22.70;61.30;;;;;;5069947;28;20041;-84
2022/07/20 03:12:38;;;;;;;8.60;3.60;;;22.70;61.50;;;;;;5053455;28;20501;-84
2022/07/20 03:15:05;;;;;;;9.02;3.92;;;22.70;61.70;;;;;;5070063;28;20040;-84
2022/07/20 03:17:31;;;;;;;9.43;4.10;;;22.70;62.00;;;;;;5070231;28;20212;-84
2022/07/20 03:19:56;;;;;;;8.70;3.67;;;22.60;62.10;;;;;;5069357;28;20522;-84
2022/07/20 03:22:22;;;;;;;9.93;3.72;;;22.60;62.20;;;;;;5069992;28;20043;-84
2022/07/20 03:24:48;;;;;;;9.57;3.90;;;22.60;62.10;;;;;;5069918;28;20040;-84
2022/07/20 03:27:13;;;;;;;7.97;4.00;;;22.50;62.50;;;;;;5053201;28;20039;-85
2022/07/20 03:29:39;;;;;;;9.02;3.67;;;22.50;62.70;;;;;;5069557;28;20052;-84
2022/07/20 03:32:05;;;;;;;8.65;4.13;;;22.50;62.70;;;;;;5070248;28;20047;-84
2022/07/20 03:34:31;;;;;;;6.97;3.78;;;22.50;62.80;;;;;;5052645;28;20502;-84
2022/07/20 03:36:57;;;;;;;8.13;3.75;;;22.40;62.70;;;;;;5069741;28;20047;-84
2022/07/20 03:39:23;;;;;;;10.23;4.10;;;22.40;62.90;;;;;;5069615;28;20321;-84
2022/07/20 03:41:48;;;;;;;10.80;3.97;;;22.40;62.80;;;;;;5069852;28;20040;-84
2022/07/20 03:44:14;;;;;;;8.27;3.90;;;22.30;62.90;;;;;;5069577;28;20041;-84
2022/07/20 03:46:39;;;;;;;8.95;4.10;;;22.40;63.50;;;;;;5069816;28;20672;-84
2022/07/20 03:49:05;;;;;;;8.30;4.10;;;22.30;63.30;;;;;;5069241;28;20417;-84
2022/07/20 03:51:30;;;;;;;10.63;4.60;;;22.30;63.30;;;;;;5069620;28;20040;-84
2022/07/20 03:53:56;;;;;;;9.48;3.90;;;22.30;63.50;;;;;;5052871;28;20405;-84
2022/07/20 03:56:22;;;;;;;9.32;3.78;;;22.30;63.70;;;;;;5069719;28;20088;-83
2022/07/20 03:58:47;;;;;;;7.28;3.80;;;22.30;63.80;;;;;;5069538;28;20039;-84
2022/07/20 04:01:13;;;;;;;10.45;4.30;;;22.30;63.70;;;;;;5069192;28;20599;-83
2022/07/20 04:03:39;;;;;;;9.18;4.18;;;22.30;63.70;;;;;;5069435;28;20067;-83
2022/07/20 04:06:05;;;;;;;8.00;4.15;;;22.30;63.70;;;;;;5069451;28;20070;-83
2022/07/20 04:08:30;;;;;;;10.63;4.07;;;22.20;63.80;;;;;;5071262;28;20048;-84
2022/07/20 04:10:56;;;;;;;9.25;4.00;;;22.20;64.00;;;;;;5073302;28;20505;-84
2022/07/20 04:13:21;;;;;;;9.75;4.50;;;22.20;64.00;;;;;;5073742;28;20045;-84
2022/07/20 04:15:47;;;;;;;9.15;3.63;;;22.20;64.30;;;;;;5056515;28;20040;-83
2022/07/20 04:18:16;;;;;;;11.25;4.22;;;22.20;65.20;;;;;;5073379;28;20041;-84
2022/07/20 04:20:41;;;;;;;8.82;3.97;;;22.20;65.70;;;;;;5056129;28;20033;-84
2022/07/20 04:23:07;;;;;;;9.43;3.90;;;22.20;65.80;;;;;;5072058;28;20451;-84
2022/07/20 04:25:33;;;;;;;12.15;4.50;;;22.20;65.90;;;;;;5055857;28;20119;-84
2022/07/20 04:27:59;;;;;;;9.60;4.15;;;22.20;65.80;;;;;;5072421;28;20128;-84
2022/07/20 04:30:24;;;;;;;9.27;4.28;;;22.20;65.60;;;;;;5072580;28;20041;-84
2022/07/20 04:32:50;;;;;;;9.90;4.15;;;22.20;66.10;;;;;;5055928;28;20094;-84
2022/07/20 04:35:16;;;;;;;9.05;4.13;;;22.20;66.80;;;;;;5072547;28;20123;-84
2022/07/20 04:37:41;;;;;;;8.57;3.88;;;22.20;67.00;;;;;;5072905;28;20044;-84
2022/07/20 04:40:08;;;;;;;8.80;4.10;;;22.20;66.90;;;;;;5072632;28;20036;-84
2022/07/20 04:42:34;;;;;;;8.25;3.80;;;22.20;67.00;;;;;;5056179;28;20037;-84
2022/07/20 04:44:59;;;;;;;8.00;4.07;;;22.20;67.00;;;;;;5072738;28;20032;-85
2022/07/20 04:47:25;;;;;;;9.95;3.95;;;22.20;66.60;;;;;;5055854;28;20438;-85
2022/07/20 04:49:51;;;;;;;9.10;3.83;;;22.20;66.20;;;;;;5072235;28;20036;-85
2022/07/20 04:52:16;;;;;;;9.38;4.18;;;22.30;67.00;;;;;;5073103;28;20134;-85
2022/07/20 04:54:42;;;;;;;9.77;3.95;;;22.30;68.00;;;;;;5055591;28;20037;-85
2022/07/20 04:57:08;;;;;;;8.02;3.70;;;22.30;67.90;;;;;;5072679;28;20078;-85
2022/07/20 04:59:33;;;;;;;8.63;4.05;;;22.30;68.40;;;;;;5072031;28;20041;-85
2022/07/20 05:01:59;;;;;;;11.27;4.68;;;22.40;67.00;;;;;;5072498;28;20045;-84
2022/07/20 05:04:25;;;;;;;11.73;3.83;;;22.40;68.00;;;;;;5072636;28;20119;-85
2022/07/20 05:06:50;;;;;;;8.43;3.70;;;22.40;68.20;;;;;;5089095;28;20044;-85
2022/07/20 05:09:16;;;;;;;9.10;4.20;;;22.50;68.30;;;;;;5073441;28;20089;-85
2022/07/20 05:11:42;;;;;;;10.25;3.85;;;22.50;69.10;;;;;;5055598;28;20647;-85
2022/07/20 05:14:10;;;;;;;12.38;4.40;;;22.50;69.30;;;;;;5088782;28;20040;-85
2022/07/20 05:16:36;;;;;;;10.18;4.30;;;22.60;69.40;;;;;;5073020;28;20124;-85
2022/07/20 05:19:02;;;;;;;10.18;4.13;;;22.60;69.00;;;;;;5071824;28;20040;-85
2022/07/20 05:21:28;;;;;;;9.18;4.10;;;22.60;69.40;;;;;;5071859;28;20071;-85
2022/07/20 05:23:54;;;;;;;8.90;4.28;;;22.70;69.30;;;;;;5072060;28;20071;-85
2022/07/20 05:26:19;;;;;;;10.48;4.15;;;22.70;69.10;;;;;;5072040;28;20501;-85
2022/07/20 05:28:45;;;;;;;10.27;4.20;;;22.70;69.90;;;;;;5055191;28;20040;-85
2022/07/20 05:31:13;;;;;;;9.23;3.83;;;22.80;70.90;;;;;;5071609;28;20406;-85
2022/07/20 05:33:39;;;;;;;9.27;4.15;;;22.80;71.50;;;;;;5089106;28;20135;-85
2022/07/20 05:36:05;;;;;;;9.05;4.30;;;22.80;70.90;;;;;;5071604;28;20040;-85
2022/07/20 05:38:31;;;;;;;8.93;4.15;;;22.90;71.40;;;;;;5071781;28;20410;-85
2022/07/20 05:40:57;;;;;;;9.98;4.10;;;22.90;70.30;;;;;;5054634;28;20040;-84
2022/07/20 05:43:23;;;;;;;8.77;3.78;;;23.00;71.30;;;;;;5071711;28;20029;-84
2022/07/20 05:45:48;;;;;;;10.95;4.57;;;23.10;72.50;;;;;;5054312;28;20091;-84
2022/07/20 05:48:15;;;;;;;10.52;4.25;;;23.10;71.40;;;;;;5071653;28;20456;-84
2022/07/20 05:50:42;;;;;;;9.63;4.18;;;23.20;70.00;;;;;;5071431;28;20043;-84
2022/07/20 05:53:09;;;;;;;8.65;4.35;;;23.20;69.00;;;;;;5071556;28;20058;-84
2022/07/20 05:55:35;;;;;;;9.77;4.55;;;23.30;68.70;;;;;;5071354;28;20043;-84
2022/07/20 05:58:02;;;;;;;8.65;4.07;;;23.30;69.90;;;;;;5071291;28;20047;-84
2022/07/20 06:00:28;;;;;;;18.40;4.82;;;23.40;70.80;;;;;;5070821;28;20044;-84
2022/07/20 06:02:54;;;;;;;8.65;3.80;;;23.40;72.40;;;;;;5054858;28;20037;-85
2022/07/20 06:05:19;;;;;;;9.45;4.63;;;23.50;70.00;;;;;;5071194;28;20036;-85
2022/07/20 06:07:45;;;;;;;9.15;4.20;;;23.50;70.30;;;;;;5054503;28;20047;-85
2022/07/20 06:10:11;;;;;;;8.82;4.38;;;23.60;70.80;;;;;;5087717;28;20052;-85
2022/07/20 06:12:37;;;;;;;9.00;4.30;;;23.70;69.60;;;;;;5054384;28;20033;-85
2022/07/20 06:15:03;;;;;;;10.18;4.40;;;23.80;71.20;;;;;;5071905;28;20041;-84
2022/07/20 06:17:36;;;;;;;11.30;4.75;;;23.80;72.60;;;;;;5087834;28;20040;-85
2022/07/20 06:20:05;;;;;;;11.55;4.78;;;23.90;71.40;;;;;;5072095;28;20090;-85
2022/07/20 06:22:31;;;;;;;9.27;4.55;;;24.00;71.60;;;;;;5054609;28;20043;-85
2022/07/20 06:24:56;;;;;;;9.10;4.65;;;24.00;71.60;;;;;;5076874;28;20040;-85
2022/07/20 06:27:22;;;;;;;10.93;4.65;;;24.10;71.80;;;;;;5079390;28;20035;-85
2022/07/20 06:29:48;;;;;;;9.65;4.63;;;24.20;70.20;;;;;;5070581;28;20043;-84
2022/07/20 06:32:13;;;;;;;10.07;4.57;;;24.30;69.40;;;;;;5070259;28;20048;-85
2022/07/20 06:34:39;;;;;;;10.00;5.03;;;24.40;70.80;;;;;;5071783;28;20040;-85
2022/07/20 06:37:04;;;;;;;12.55;4.55;;;24.50;73.60;;;;;;5053956;28;20414;-85
2022/07/20 06:39:30;;;;;;;14.80;4.78;;;24.50;73.50;;;;;;5086977;28;20041;-85
2022/07/20 06:41:55;;;;;;;8.65;4.18;;;24.60;74.10;;;;;;5053779;28;20032;-85
2022/07/20 06:44:21;;;;;;;15.27;4.85;;;24.70;75.20;;;;;;5070040;28;20115;-85
2022/07/20 06:46:46;;;;;;;12.57;4.35;;;24.80;76.80;;;;;;5070482;28;20120;-85
2022/07/20 06:49:14;;;;;;;11.20;4.50;;;24.90;76.80;;;;;;5053551;28;20117;-85
2022/07/20 06:51:39;;;;;;;11.00;4.40;;;25.00;76.60;;;;;;5070531;28;20044;-85
2022/07/20 06:54:05;;;;;;;11.80;4.28;;;25.10;76.00;;;;;;5070218;28;20082;-85
2022/07/20 06:56:30;;;;;;;11.52;4.40;;;25.20;72.40;;;;;;5079351;28;20166;-86
2022/07/20 06:58:56;;;;;;;10.40;4.53;;;25.30;70.90;;;;;;5063358;28;20044;-85
2022/07/20 07:01:21;;;;;;;8.93;4.40;;;25.50;71.70;;;;;;5095398;28;20085;-86
2022/07/20 07:03:47;;;;;;;11.45;4.53;;;25.60;68.20;;;;;;5075988;28;20472;-85
2022/07/20 07:06:13;;;;;;;12.25;4.70;;;25.80;65.30;;;;;;5070534;28;20083;-85
2022/07/20 07:08:38;;;;;;;12.15;5.00;;;25.80;61.80;;;;;;5070272;28;20570;-85
2022/07/20 07:11:04;;;;;;;12.23;5.18;;;25.90;61.90;;;;;;5069490;28;20036;-85
2022/07/20 07:13:30;;;;;;;10.60;5.13;;;26.00;62.50;;;;;;5053582;28;20040;-85
2022/07/20 07:15:55;;;;;;;11.45;4.85;;;26.00;64.00;;;;;;5071058;28;20071;-86
2022/07/20 07:18:21;;;;;;;9.45;4.93;;;26.00;63.50;;;;;;5053274;28;20425;-86
2022/07/20 07:20:46;;;;;;;12.05;4.97;;;26.00;63.80;;;;;;5069543;28;20041;-86
2022/07/20 07:23:12;;;;;;;12.20;5.05;;;26.10;65.20;;;;;;5069942;28;20028;-86
2022/07/20 07:25:37;;;;;;;12.13;5.07;;;26.10;63.50;;;;;;5071253;28;20459;-86
2022/07/20 07:28:03;;;;;;;10.85;5.30;;;26.20;63.00;;;;;;5074752;28;20109;-86
2022/07/20 07:30:29;;;;;;;14.52;5.32;;;26.20;64.50;;;;;;5079452;28;20119;-86
2022/07/20 07:32:54;;;;;;;13.77;6.75;;;26.20;65.40;;;;;;5064114;28;20578;-86
2022/07/20 07:35:20;;;;;;;12.27;6.72;;;26.30;66.00;;;;;;5062041;28;20046;-86
2022/07/20 07:37:46;;;;;;;14.93;6.43;;;26.40;64.50;;;;;;5090072;28;20093;-86
2022/07/20 07:40:12;;;;;;;11.07;6.93;;;26.40;64.90;;;;;;5089700;28;20040;-85
2022/07/20 07:42:37;;;;;;;14.40;6.65;;;26.50;64.20;;;;;;5090359;28;20509;-86
2022/07/20 07:45:06;;;;;;;17.67;8.07;;;26.50;65.50;;;;;;5094051;28;20040;-86
2022/07/20 07:47:32;;;;;;;13.85;6.78;;;26.50;65.00;;;;;;5094375;28;20043;-86
2022/07/20 07:49:58;;;;;;;13.18;8.23;;;26.60;68.50;;;;;;5093833;28;20127;-86
2022/07/20 07:52:23;;;;;;;15.25;7.47;;;26.60;67.10;;;;;;5094220;28;20130;-86
2022/07/20 07:54:49;;;;;;;15.55;8.70;;;26.70;70.30;;;;;;5093007;28;20040;-86
2022/07/20 07:57:14;;;;;;;19.27;9.40;;;26.70;74.00;;;;;;5102717;28;20101;-85
2022/07/20 07:59:42;;;;;;;14.68;8.63;;;26.70;77.10;;;;;;5096999;28;20040;-85
2022/07/20 08:02:08;;;;;;;15.75;8.45;;;26.80;80.40;;;;;;5095517;28;20075;-85
2022/07/20 08:04:34;;;;;;;18.33;9.57;;;26.90;80.10;;;;;;5112572;28;20040;-86
2022/07/20 08:07:00;;;;;;;20.17;10.43;;;26.90;81.20;;;;;;5089776;28;20388;-85
2022/07/20 08:09:26;;;;;;;25.05;10.30;;;26.90;84.20;;;;;;5105568;28;20020;-87
2022/07/20 08:11:52;;;;;;;20.52;10.80;;;27.00;81.20;;;;;;5107450;28;20042;-86
2022/07/20 08:14:18;;;;;;;18.63;11.73;;;27.00;85.00;;;;;;5093332;28;20048;-84
2022/07/20 08:16:43;;;;;;;19.75;13.68;;;27.00;84.60;;;;;;5092768;28;20071;-87
2022/07/20 08:19:10;;;;;;;17.42;13.90;;;27.00;86.60;;;;;;5093440;28;20119;-86
2022/07/20 08:21:36;;;;;;;21.52;15.57;;;27.00;91.50;;;;;;5092887;28;20040;-86
2022/07/20 08:24:05;;;;;;;19.60;16.00;;;27.00;93.00;;;;;;5074647;28;20055;-86
2022/07/20 08:26:31;;;;;;;20.50;15.07;;;27.10;93.20;;;;;;5108631;28;20040;-86
2022/07/20 08:28:57;;;;;;;20.73;15.65;;;27.10;94.80;;;;;;5093077;28;20051;-86
2022/07/20 08:31:23;;;;;;;23.50;16.05;;;27.10;94.80;;;;;;5092981;28;20032;-86
2022/07/20 08:33:49;;;;;;;22.13;16.83;;;27.20;95.40;;;;;;5093294;28;20036;-86
2022/07/20 08:36:14;;;;;;;24.65;18.23;;;27.20;95.80;;;;;;5093072;28;20043;-86
2022/07/20 08:38:40;;;;;;;22.48;17.77;;;27.30;96.30;;;;;;5093232;28;20039;-86
2022/07/20 08:41:08;;;;;;;23.08;17.70;;;27.30;98.30;;;;;;5075850;28;20043;-86
2022/07/20 08:43:33;;;;;;;21.45;17.30;;;27.40;98.30;;;;;;5093135;28;20519;-86
2022/07/20 08:45:59;;;;;;;27.77;18.80;;;27.40;97.10;;;;;;5110099;28;20566;-86
2022/07/20 08:48:26;;;;;;;28.08;18.73;;;27.40;96.30;;;;;;5092361;28;20032;-86
2022/07/20 08:50:52;;;;;;;24.65;17.58;;;27.40;96.30;;;;;;5109974;28;20098;-86
2022/07/20 08:53:19;;;;;;;22.25;18.13;;;27.50;98.50;;;;;;5109630;28;20509;-87
2022/07/20 08:55:45;;;;;;;21.60;17.08;;;27.50;97.70;;;;;;5092252;28;20153;-87
2022/07/20 08:58:11;;;;;;;22.40;17.05;;;27.50;98.50;;;;;;5092910;28;20043;-87
2022/07/20 09:00:37;;;;;;;22.23;18.15;;;27.60;98.70;;;;;;5109263;28;20036;-87
2022/07/20 09:03:05;;;;;;;23.95;18.50;;;27.70;99.00;;;;;;5109973;28;20489;-87
2022/07/20 09:05:33;;;;;;;21.77;17.88;;;27.70;94.00;;;;;;5109428;28;20082;-86
2022/07/20 09:08:00;;;;;;;22.00;18.52;;;27.80;93.70;;;;;;5089795;28;20096;-86
2022/07/20 09:10:34;;;;;;;23.20;18.95;;;27.70;93.70;;;;;;5092688;28;20062;-85
2022/07/20 09:13:06;;;;;;;28.80;20.10;;;27.70;93.00;;;;;;5109122;28;20090;-85
2022/07/20 09:15:39;;;;;;;25.95;20.25;;;27.80;92.70;;;;;;5109614;28;20043;-85
2022/07/20 09:18:25;;;;;;;22.10;19.80;;;27.90;92.70;;;;;;5091691;28;20048;-86
2022/07/20 09:20:59;;;;;;;26.55;21.35;;;27.90;92.00;;;;;;5093339;28;20076;-85
2022/07/20 09:23:46;;;;;;;27.95;22.02;;;27.90;91.40;;;;;;5109257;28;20068;-85
2022/07/20 09:26:12;;;;;;;24.98;21.02;;;28.00;90.00;;;;;;5092528;28;20044;-85
2022/07/20 09:28:44;;;;;;;28.33;22.67;;;28.00;92.10;;;;;;5091873;28;20085;-86
2022/07/20 09:31:11;;;;;;;25.88;23.00;;;28.10;90.00;;;;;;5092321;28;20460;-85
2022/07/20 09:33:37;;;;;;;27.80;23.60;;;28.00;88.50;;;;;;5109024;28;20040;-86
2022/07/20 09:36:05;;;;;;;25.83;21.52;;;28.10;90.70;;;;;;5108886;28;20101;-85
2022/07/20 09:38:37;;;;;;;27.70;22.55;;;28.20;81.90;;;;;;5092674;28;20085;-86
2022/07/20 09:41:07;;;;;;;25.88;22.88;;;28.10;78.10;;;;;;5091707;28;20527;-85
2022/07/20 09:43:35;;;;;;;26.17;23.38;;;28.10;78.30;;;;;;5092018;28;20139;-86
2022/07/20 09:46:17;;;;;;;30.63;22.25;;;28.10;79.00;;;;;;5091477;28;20082;-85
2022/07/20 09:48:44;;;;;;;31.83;23.33;;;28.10;79.70;;;;;;5066110;28;20085;-86
2022/07/20 09:51:30;;;;;;;25.60;22.58;;;28.20;82.80;;;;;;5080899;28;20043;-86
2022/07/20 09:54:00;;;;;;;26.52;21.63;;;28.20;79.60;;;;;;5081806;28;20048;-86
2022/07/20 09:56:26;;;;;;;25.60;21.35;;;28.30;82.90;;;;;;5071768;28;20067;-86
2022/07/20 09:58:55;;;;;;;23.73;20.85;;;28.50;84.20;;;;;;5065883;28;20048;-86
2022/07/20 10:01:26;;;;;;;23.20;19.95;;;28.50;81.00;;;;;;5081092;28;20039;-85
2022/07/20 10:03:54;;;;;;;21.88;19.13;;;28.60;76.80;;;;;;5080496;28;20413;-85
2022/07/20 10:06:22;;;;;;;24.83;18.95;;;28.60;76.00;;;;;;5079896;28;20040;-85
2022/07/20 10:08:49;;;;;;;23.88;19.17;;;28.60;72.70;;;;;;5080850;28;20371;-86
2022/07/20 10:11:16;;;;;;;25.83;18.25;;;28.70;75.20;;;;;;5082619;28;20054;-85
2022/07/20 10:13:42;;;;;;;22.13;17.33;;;28.80;74.50;;;;;;5091358;28;20040;-85
2022/07/20 10:16:34;;;;;;;21.05;17.48;;;28.80;73.20;;;;;;5091460;28;20044;-85
2022/07/20 10:19:00;;;;;;;21.10;17.45;;;28.80;71.00;;;;;;5090841;28;20390;-85
2022/07/20 10:21:42;;;;;;;24.52;17.98;;;28.80;73.30;;;;;;5107859;28;20089;-84
2022/07/20 10:24:17;;;;;;;22.23;17.02;;;28.90;75.20;;;;;;5108296;28;20040;-85
2022/07/20 10:26:48;;;;;;;22.60;16.98;;;29.00;72.60;;;;;;5090983;28;20036;-85
2022/07/20 10:29:27;;;;;;;28.50;15.55;;;29.00;74.10;;;;;;5090336;28;20048;-85
2022/07/20 10:32:16;;;;;;;21.80;14.75;;;29.10;72.10;;;;;;5107602;28;20540;-85
2022/07/20 10:34:42;;;;;;;21.30;15.82;;;29.20;71.90;;;;;;5115609;27;20044;-85
2022/07/20 10:37:39;;;;;;;23.00;15.75;;;29.20;70.30;;;;;;5091862;28;20493;-86
2022/07/20 10:40:25;;;;;;;19.27;13.10;;;29.30;72.00;;;;;;5090415;28;20043;-85
2022/07/20 10:43:14;;;;;;;16.10;12.27;;;29.20;63.80;;;;;;5107946;28;20125;-86
2022/07/20 10:45:40;;;;;;;18.60;12.98;;;29.00;64.20;;;;;;5090830;28;20032;-86
2022/07/20 10:48:12;;;;;;;17.42;11.73;;;29.00;64.80;;;;;;5090618;28;20093;-86
2022/07/20 10:50:41;;;;;;;21.25;11.98;;;29.10;66.40;;;;;;5107121;28;20079;-85
2022/07/20 10:53:10;;;;;;;16.23;11.85;;;29.00;66.00;;;;;;5091002;28;20044;-86
2022/07/20 10:55:36;;;;;;;16.13;10.75;;;29.10;66.60;;;;;;5124451;27;20044;-86
2022/07/20 10:58:04;;;;;;;15.45;10.32;;;29.10;64.60;;;;;;5102334;28;20036;-86
2022/07/20 11:00:51;;;;;;;14.63;10.38;;;29.10;64.10;;;;;;5075016;28;20036;-86
2022/07/20 11:03:34;;;;;;;16.60;10.23;;;29.10;63.40;;;;;;5053197;28;20045;-86
2022/07/20 11:06:06;;;;;;;16.00;11.10;;;29.00;62.10;;;;;;5070253;28;20032;-86
2022/07/20 11:08:42;;;;;;;15.10;10.65;;;29.10;65.20;;;;;;5070263;28;20508;-86
2022/07/20 11:11:18;;;;;;;15.98;10.35;;;29.10;62.20;;;;;;5069738;28;20660;-85
2022/07/20 11:13:46;;;;;;;16.33;10.70;;;29.10;60.70;;;;;;5069928;28;20052;-86
2022/07/20 11:16:12;;;;;;;16.55;10.18;;;29.10;63.90;;;;;;5070173;28;20450;-86
2022/07/20 11:18:38;;;;;;;18.35;10.32;;;29.20;63.30;;;;;;5069523;28;20121;-86
2022/07/20 11:21:08;;;;;;;14.43;10.30;;;29.30;62.80;;;;;;5069618;28;20402;-85
2022/07/20 11:23:43;;;;;;;13.38;10.07;;;29.40;65.40;;;;;;5069971;28;20115;-85
2022/07/20 11:26:10;;;;;;;15.70;9.95;;;29.40;64.00;;;;;;5070870;28;20039;-86
2022/07/20 11:28:42;;;;;;;13.52;9.48;;;29.50;63.50;;;;;;5070270;28;20125;-86
2022/07/20 11:31:07;;;;;;;15.55;10.13;;;29.60;63.00;;;;;;5052923;28;20049;-85
2022/07/20 11:33:37;;;;;;;15.38;9.60;;;29.60;61.30;;;;;;5069906;28;20043;-85
2022/07/20 11:36:09;;;;;;;14.65;9.63;;;29.60;62.90;;;;;;5069613;28;20048;-85
2022/07/20 11:38:42;;;;;;;14.15;8.73;;;29.60;62.30;;;;;;5069631;28;20082;-85
2022/07/20 11:41:32;;;;;;;12.32;8.32;;;29.70;63.50;;;;;;5069649;28;20047;-86
2022/07/20 11:43:59;;;;;;;14.45;8.52;;;29.80;62.20;;;;;;5052687;28;20532;-86
2022/07/20 11:46:30;;;;;;;13.18;8.32;;;29.80;63.30;;;;;;5069874;28;20464;-86
2022/07/20 11:49:01;;;;;;;13.80;8.65;;;29.90;63.90;;;;;;5052790;28;20047;-85
2022/07/20 11:51:28;;;;;;;13.23;8.35;;;30.00;62.90;;;;;;5053201;28;20124;-86
2022/07/20 11:53:54;;;;;;;13.18;8.18;;;30.00;60.30;;;;;;5069450;28;20033;-86
2022/07/20 11:56:25;;;;;;;13.80;8.00;;;29.90;59.50;;;;;;5069208;28;20033;-86
2022/07/20 11:58:53;;;;;;;14.23;8.70;;;29.90;59.10;;;;;;5069387;28;20037;-86
2022/07/20 12:01:24;;;;;;;12.20;7.65;;;30.00;60.00;;;;;;5069265;28;20037;-86
2022/07/20 12:03:55;;;;;;;13.73;8.00;;;30.10;60.60;;;;;;5053010;28;20036;-86
2022/07/20 12:06:22;;;;;;;13.20;7.45;;;30.20;60.40;;;;;;5052970;28;20037;-86
2022/07/20 12:09:12;;;;;;;12.40;7.53;;;30.30;61.40;;;;;;5069733;28;20115;-86
2022/07/20 12:11:59;;;;;;;12.27;7.00;;;30.40;60.00;;;;;;5069573;28;20566;-86
2022/07/20 12:14:36;;;;;;;13.38;7.75;;;30.50;58.00;;;;;;5069481;28;20132;-86
2022/07/20 12:17:15;;;;;;;12.70;7.38;;;30.50;59.80;;;;;;5069477;28;20044;-86
2022/07/20 12:19:43;;;;;;;13.20;7.40;;;30.60;59.40;;;;;;5069334;28;20086;-85
2022/07/20 12:22:27;;;;;;;13.63;8.25;;;30.60;59.30;;;;;;5069659;28;20044;-86
2022/07/20 12:25:13;;;;;;;14.40;7.60;;;30.80;60.40;;;;;;5052810;28;20242;-86
2022/07/20 12:27:39;;;;;;;11.50;7.20;;;30.90;59.00;;;;;;5069018;28;20048;-86
2022/07/20 12:30:29;;;;;;;13.18;7.80;;;31.00;61.00;;;;;;5055325;28;20370;-86
2022/07/20 12:33:13;;;;;;;12.60;7.43;;;31.20;59.30;;;;;;5074531;28;20402;-86
2022/07/20 12:35:41;;;;;;;12.30;6.70;;;31.40;59.50;;;;;;5056421;28;20123;-86
2022/07/20 12:38:07;;;;;;;11.25;7.47;;;31.60;59.20;;;;;;5073049;28;20123;-86
2022/07/20 12:40:44;;;;;;;12.63;8.48;;;31.60;59.20;;;;;;5072421;28;20045;-86
2022/07/20 12:43:35;;;;;;;11.13;7.47;;;31.50;58.70;;;;;;5074410;28;20465;-86
2022/07/20 12:46:07;;;;;;;13.23;7.95;;;31.60;57.30;;;;;;5072515;28;20044;-86